sensor_id;sensor_type;location;lat;lon;timestamp;P1;durP1;ratioP1;P2;durP2;ratioP2
19038;SDS011;9652;49.014;12.052;2022-11-23T00:01:31;15.80;;;8.47;;
19038;SDS011;9652;49.014;12.052;2022-11-23T00:04:00;10.77;;;8.27;;
19038;SDS011;9652;49.014;12.052;2022-11-23T00:06:30;17.00;;;9.27;;
19038;SDS011;9652;49.014;12.052;2022-11-23T00:08:58;12.87;;;8.30;;
19038;SDS011;9652;49.014;12.052;2022-11-23T00:11:26;12.43;;;8.03;;
19038;SDS011;9652;49.014;12.052;2022-11-23T00:13:54;14.03;;;8.33;;
19038;SDS011;9652;49.014;12.052;2022-11-23T00:16:24;12.20;;;8.87;;
19038;SDS011;9652;49.014;12.052;2022-11-23T00:18:54;11.83;;;8.70;;
19038;SDS011;9652;49.014;12.052;2022-11-23T00:21:23;14.77;;;8.30;;
19038;SDS011;9652;49.014;12.052;2022-11-23T00:23:53;12.47;;;8.37;;
19038;SDS011;9652;49.014;12.052;2022-11-23T00:26:20;11.33;;;8.17;;
19038;SDS011;9652;49.014;12.052;2022-11-23T00:28:47;13.03;;;8.60;;
19038;SDS011;9652;49.014;12.052;2022-11-23T00:31:15;14.10;;;9.20;;
19038;SDS011;9652;49.014;12.052;2022-11-23T00:33:48;13.17;;;8.57;;
19038;SDS011;9652;49.014;12.052;2022-11-23T00:36:16;14.60;;;9.43;;
19038;SDS011;9652;49.014;12.052;2022-11-23T00:38:45;16.03;;;10.23;;
19038;SDS011;9652;49.014;12.052;2022-11-23T00:41:14;13.30;;;8.90;;
19038;SDS011;9652;49.014;12.052;2022-11-23T00:43:43;12.60;;;8.50;;
19038;SDS011;9652;49.014;12.052;2022-11-23T00:46:12;12.47;;;8.70;;
19038;SDS011;9652;49.014;12.052;2022-11-23T00:48:41;13.53;;;9.20;;
19038;SDS011;9652;49.014;12.052;2022-11-23T00:51:11;11.63;;;7.37;;
19038;SDS011;9652;49.014;12.052;2022-11-23T00:53:41;12.90;;;7.83;;
19038;SDS011;9652;49.014;12.052;2022-11-23T00:56:10;13.27;;;8.47;;
19038;SDS011;9652;49.014;12.052;2022-11-23T00:58:38;10.13;;;7.43;;
19038;SDS011;9652;49.014;12.052;2022-11-23T01:01:06;10.80;;;7.83;;
19038;SDS011;9652;49.014;12.052;2022-11-23T01:03:36;10.30;;;7.17;;
19038;SDS011;9652;49.014;12.052;2022-11-23T01:06:07;12.83;;;8.23;;
19038;SDS011;9652;49.014;12.052;2022-11-23T01:08:37;12.27;;;8.13;;
19038;SDS011;9652;49.014;12.052;2022-11-23T01:11:06;10.03;;;7.17;;
19038;SDS011;9652;49.014;12.052;2022-11-23T01:13:35;11.67;;;8.30;;
19038;SDS011;9652;49.014;12.052;2022-11-23T01:16:04;12.93;;;7.97;;
19038;SDS011;9652;49.014;12.052;2022-11-23T01:18:35;11.00;;;7.20;;
19038;SDS011;9652;49.014;12.052;2022-11-23T01:21:02;10.47;;;7.57;;
19038;SDS011;9652;49.014;12.052;2022-11-23T01:23:29;9.77;;;7.30;;
19038;SDS011;9652;49.014;12.052;2022-11-23T01:25:58;9.93;;;8.17;;
19038;SDS011;9652;49.014;12.052;2022-11-23T01:28:31;12.33;;;7.80;;
19038;SDS011;9652;49.014;12.052;2022-11-23T01:31:02;9.73;;;7.50;;
19038;SDS011;9652;49.014;12.052;2022-11-23T01:33:31;12.57;;;8.03;;
19038;SDS011;9652;49.014;12.052;2022-11-23T01:35:58;10.63;;;6.73;;
19038;SDS011;9652;49.014;12.052;2022-11-23T01:38:26;9.63;;;6.97;;
19038;SDS011;9652;49.014;12.052;2022-11-23T01:40:53;9.20;;;6.80;;
19038;SDS011;9652;49.014;12.052;2022-11-23T01:43:21;8.97;;;6.90;;
19038;SDS011;9652;49.014;12.052;2022-11-23T01:45:55;10.00;;;7.80;;
19038;SDS011;9652;49.014;12.052;2022-11-23T01:48:25;9.43;;;7.37;;
19038;SDS011;9652;49.014;12.052;2022-11-23T01:50:59;9.97;;;7.17;;
19038;SDS011;9652;49.014;12.052;2022-11-23T01:53:33;10.53;;;7.47;;
19038;SDS011;9652;49.014;12.052;2022-11-23T01:56:03;9.40;;;7.03;;
19038;SDS011;9652;49.014;12.052;2022-11-23T01:58:36;8.70;;;6.70;;
19038;SDS011;9652;49.014;12.052;2022-11-23T02:01:08;10.33;;;7.03;;
19038;SDS011;9652;49.014;12.052;2022-11-23T02:03:36;8.47;;;6.37;;
19038;SDS011;9652;49.014;12.052;2022-11-23T02:06:09;7.73;;;6.57;;
19038;SDS011;9652;49.014;12.052;2022-11-23T02:08:40;8.97;;;7.13;;
19038;SDS011;9652;49.014;12.052;2022-11-23T02:11:09;10.23;;;6.67;;
19038;SDS011;9652;49.014;12.052;2022-11-23T02:13:40;11.03;;;8.07;;
19038;SDS011;9652;49.014;12.052;2022-11-23T02:16:10;8.53;;;6.43;;
19038;SDS011;9652;49.014;12.052;2022-11-23T02:18:39;8.60;;;6.50;;
19038;SDS011;9652;49.014;12.052;2022-11-23T02:21:10;8.97;;;6.97;;
19038;SDS011;9652;49.014;12.052;2022-11-23T02:23:45;9.97;;;7.47;;
19038;SDS011;9652;49.014;12.052;2022-11-23T02:26:24;8.00;;;6.60;;
19038;SDS011;9652;49.014;12.052;2022-11-23T02:28:55;10.77;;;6.37;;
19038;SDS011;9652;49.014;12.052;2022-11-23T02:31:29;9.07;;;6.73;;
19038;SDS011;9652;49.014;12.052;2022-11-23T02:33:56;16.93;;;7.83;;
19038;SDS011;9652;49.014;12.052;2022-11-23T02:36:29;9.27;;;7.17;;
19038;SDS011;9652;49.014;12.052;2022-11-23T02:39:05;8.77;;;6.00;;
19038;SDS011;9652;49.014;12.052;2022-11-23T02:41:39;8.57;;;6.70;;
19038;SDS011;9652;49.014;12.052;2022-11-23T02:44:16;10.43;;;7.20;;
19038;SDS011;9652;49.014;12.052;2022-11-23T02:46:51;9.50;;;6.80;;
19038;SDS011;9652;49.014;12.052;2022-11-23T02:49:19;9.47;;;7.33;;
19038;SDS011;9652;49.014;12.052;2022-11-23T02:51:49;8.60;;;6.63;;
19038;SDS011;9652;49.014;12.052;2022-11-23T02:54:16;8.27;;;6.77;;
19038;SDS011;9652;49.014;12.052;2022-11-23T02:56:45;10.07;;;6.53;;
19038;SDS011;9652;49.014;12.052;2022-11-23T02:59:12;8.97;;;7.37;;
19038;SDS011;9652;49.014;12.052;2022-11-23T03:01:41;9.37;;;6.90;;
19038;SDS011;9652;49.014;12.052;2022-11-23T03:04:08;7.00;;;6.17;;
19038;SDS011;9652;49.014;12.052;2022-11-23T03:06:35;8.03;;;7.07;;
19038;SDS011;9652;49.014;12.052;2022-11-23T03:09:03;8.13;;;6.63;;
19038;SDS011;9652;49.014;12.052;2022-11-23T03:11:31;9.40;;;7.13;;
19038;SDS011;9652;49.014;12.052;2022-11-23T03:14:02;9.13;;;7.13;;
19038;SDS011;9652;49.014;12.052;2022-11-23T03:16:37;9.77;;;6.83;;
19038;SDS011;9652;49.014;12.052;2022-11-23T03:19:05;8.33;;;6.70;;
19038;SDS011;9652;49.014;12.052;2022-11-23T03:21:32;9.73;;;6.93;;
19038;SDS011;9652;49.014;12.052;2022-11-23T03:24:05;9.17;;;7.17;;
19038;SDS011;9652;49.014;12.052;2022-11-23T03:26:33;8.40;;;6.97;;
19038;SDS011;9652;49.014;12.052;2022-11-23T03:29:14;8.63;;;7.33;;
19038;SDS011;9652;49.014;12.052;2022-11-23T03:31:42;9.93;;;7.40;;
19038;SDS011;9652;49.014;12.052;2022-11-23T03:34:12;9.17;;;6.87;;
19038;SDS011;9652;49.014;12.052;2022-11-23T03:36:39;9.07;;;6.50;;
19038;SDS011;9652;49.014;12.052;2022-11-23T03:39:07;9.30;;;6.33;;
19038;SDS011;9652;49.014;12.052;2022-11-23T03:42:03;9.27;;;6.80;;
19038;SDS011;9652;49.014;12.052;2022-11-23T03:44:34;6.43;;;5.70;;
19038;SDS011;9652;49.014;12.052;2022-11-23T03:47:03;8.17;;;6.73;;
19038;SDS011;9652;49.014;12.052;2022-11-23T03:49:33;9.07;;;7.03;;
19038;SDS011;9652;49.014;12.052;2022-11-23T03:52:01;9.60;;;7.00;;
19038;SDS011;9652;49.014;12.052;2022-11-23T03:54:28;9.80;;;7.13;;
19038;SDS011;9652;49.014;12.052;2022-11-23T03:56:56;11.30;;;7.40;;
19038;SDS011;9652;49.014;12.052;2022-11-23T03:59:23;8.80;;;7.27;;
19038;SDS011;9652;49.014;12.052;2022-11-23T04:01:52;10.43;;;8.43;;
19038;SDS011;9652;49.014;12.052;2022-11-23T04:04:24;9.10;;;7.10;;
19038;SDS011;9652;49.014;12.052;2022-11-23T04:06:57;8.07;;;6.80;;
19038;SDS011;9652;49.014;12.052;2022-11-23T04:09:29;10.23;;;7.53;;
19038;SDS011;9652;49.014;12.052;2022-11-23T04:12:16;9.50;;;7.07;;
19038;SDS011;9652;49.014;12.052;2022-11-23T04:14:44;10.67;;;7.57;;
19038;SDS011;9652;49.014;12.052;2022-11-23T04:17:12;10.57;;;7.53;;
19038;SDS011;9652;49.014;12.052;2022-11-23T04:19:40;10.30;;;7.43;;
19038;SDS011;9652;49.014;12.052;2022-11-23T04:22:07;9.03;;;7.00;;
19038;SDS011;9652;49.014;12.052;2022-11-23T04:24:39;10.13;;;7.33;;
19038;SDS011;9652;49.014;12.052;2022-11-23T04:27:07;9.20;;;7.20;;
19038;SDS011;9652;49.014;12.052;2022-11-23T04:29:37;8.77;;;7.00;;
19038;SDS011;9652;49.014;12.052;2022-11-23T04:32:05;9.30;;;7.10;;
19038;SDS011;9652;49.014;12.052;2022-11-23T04:34:33;9.60;;;7.77;;
19038;SDS011;9652;49.014;12.052;2022-11-23T04:37:04;8.07;;;6.90;;
19038;SDS011;9652;49.014;12.052;2022-11-23T04:39:36;8.17;;;6.63;;
19038;SDS011;9652;49.014;12.052;2022-11-23T04:42:17;8.77;;;7.33;;
19038;SDS011;9652;49.014;12.052;2022-11-23T04:44:52;10.00;;;7.40;;
19038;SDS011;9652;49.014;12.052;2022-11-23T04:47:21;8.60;;;6.60;;
19038;SDS011;9652;49.014;12.052;2022-11-23T04:49:50;9.17;;;6.47;;
19038;SDS011;9652;49.014;12.052;2022-11-23T04:52:18;8.63;;;6.70;;
19038;SDS011;9652;49.014;12.052;2022-11-23T04:54:48;8.17;;;6.97;;
19038;SDS011;9652;49.014;12.052;2022-11-23T04:57:16;9.63;;;6.93;;
19038;SDS011;9652;49.014;12.052;2022-11-23T04:59:44;9.40;;;7.30;;
19038;SDS011;9652;49.014;12.052;2022-11-23T05:02:11;7.10;;;6.13;;
19038;SDS011;9652;49.014;12.052;2022-11-23T05:04:48;7.00;;;6.10;;
19038;SDS011;9652;49.014;12.052;2022-11-23T05:07:18;8.10;;;6.80;;
19038;SDS011;9652;49.014;12.052;2022-11-23T05:09:52;9.60;;;7.17;;
19038;SDS011;9652;49.014;12.052;2022-11-23T05:12:20;7.63;;;6.23;;
19038;SDS011;9652;49.014;12.052;2022-11-23T05:14:48;8.00;;;6.67;;
19038;SDS011;9652;49.014;12.052;2022-11-23T05:17:21;9.50;;;6.27;;
19038;SDS011;9652;49.014;12.052;2022-11-23T05:19:51;8.70;;;6.60;;
19038;SDS011;9652;49.014;12.052;2022-11-23T05:22:22;7.30;;;6.33;;
19038;SDS011;9652;49.014;12.052;2022-11-23T05:24:49;7.43;;;6.00;;
19038;SDS011;9652;49.014;12.052;2022-11-23T05:27:19;7.43;;;6.20;;
19038;SDS011;9652;49.014;12.052;2022-11-23T05:29:47;8.13;;;6.17;;
19038;SDS011;9652;49.014;12.052;2022-11-23T05:32:14;8.63;;;7.47;;
19038;SDS011;9652;49.014;12.052;2022-11-23T05:34:41;9.00;;;6.97;;
19038;SDS011;9652;49.014;12.052;2022-11-23T05:37:11;8.30;;;6.73;;
19038;SDS011;9652;49.014;12.052;2022-11-23T05:39:49;8.10;;;6.90;;
19038;SDS011;9652;49.014;12.052;2022-11-23T05:42:17;8.87;;;7.00;;
19038;SDS011;9652;49.014;12.052;2022-11-23T05:44:46;8.83;;;7.13;;
19038;SDS011;9652;49.014;12.052;2022-11-23T05:47:19;7.43;;;6.27;;
19038;SDS011;9652;49.014;12.052;2022-11-23T05:49:47;8.10;;;6.77;;
19038;SDS011;9652;49.014;12.052;2022-11-23T05:52:17;6.50;;;5.80;;
19038;SDS011;9652;49.014;12.052;2022-11-23T05:54:45;8.50;;;6.77;;
19038;SDS011;9652;49.014;12.052;2022-11-23T05:57:15;8.00;;;6.27;;
19038;SDS011;9652;49.014;12.052;2022-11-23T05:59:43;9.53;;;6.83;;
19038;SDS011;9652;49.014;12.052;2022-11-23T06:02:16;8.93;;;6.93;;
19038;SDS011;9652;49.014;12.052;2022-11-23T06:04:45;8.93;;;7.17;;
19038;SDS011;9652;49.014;12.052;2022-11-23T06:07:16;9.50;;;7.97;;
19038;SDS011;9652;49.014;12.052;2022-11-23T06:10:05;10.37;;;6.50;;
19038;SDS011;9652;49.014;12.052;2022-11-23T06:12:40;10.43;;;7.37;;
19038;SDS011;9652;49.014;12.052;2022-11-23T06:15:11;9.77;;;7.20;;
19038;SDS011;9652;49.014;12.052;2022-11-23T06:17:39;8.83;;;6.20;;
19038;SDS011;9652;49.014;12.052;2022-11-23T06:20:12;9.87;;;7.37;;
19038;SDS011;9652;49.014;12.052;2022-11-23T06:22:50;7.40;;;6.57;;
19038;SDS011;9652;49.014;12.052;2022-11-23T06:25:23;9.10;;;6.53;;
19038;SDS011;9652;49.014;12.052;2022-11-23T06:28:15;8.70;;;6.67;;
19038;SDS011;9652;49.014;12.052;2022-11-23T06:30:45;7.97;;;6.53;;
19038;SDS011;9652;49.014;12.052;2022-11-23T06:33:13;7.77;;;6.60;;
19038;SDS011;9652;49.014;12.052;2022-11-23T06:35:50;7.50;;;6.33;;
19038;SDS011;9652;49.014;12.052;2022-11-23T06:38:19;7.93;;;6.37;;
19038;SDS011;9652;49.014;12.052;2022-11-23T06:40:51;9.37;;;7.47;;
19038;SDS011;9652;49.014;12.052;2022-11-23T06:43:23;9.03;;;6.83;;
19038;SDS011;9652;49.014;12.052;2022-11-23T06:45:51;8.67;;;7.37;;
19038;SDS011;9652;49.014;12.052;2022-11-23T06:48:18;9.30;;;7.70;;
19038;SDS011;9652;49.014;12.052;2022-11-23T06:50:47;7.83;;;6.50;;
19038;SDS011;9652;49.014;12.052;2022-11-23T06:53:15;8.17;;;6.63;;
19038;SDS011;9652;49.014;12.052;2022-11-23T06:55:49;7.77;;;6.47;;
19038;SDS011;9652;49.014;12.052;2022-11-23T06:58:18;8.03;;;6.73;;
19038;SDS011;9652;49.014;12.052;2022-11-23T07:00:47;13.83;;;6.60;;
19038;SDS011;9652;49.014;12.052;2022-11-23T07:03:17;8.30;;;6.47;;
19038;SDS011;9652;49.014;12.052;2022-11-23T07:05:49;6.80;;;6.03;;
19038;SDS011;9652;49.014;12.052;2022-11-23T07:08:19;9.90;;;6.60;;
19038;SDS011;9652;49.014;12.052;2022-11-23T07:10:46;8.33;;;6.60;;
19038;SDS011;9652;49.014;12.052;2022-11-23T07:13:15;7.80;;;6.00;;
19038;SDS011;9652;49.014;12.052;2022-11-23T07:15:42;8.23;;;6.70;;
19038;SDS011;9652;49.014;12.052;2022-11-23T07:18:13;9.77;;;7.40;;
19038;SDS011;9652;49.014;12.052;2022-11-23T07:20:47;8.87;;;6.63;;
19038;SDS011;9652;49.014;12.052;2022-11-23T07:23:14;8.83;;;6.83;;
19038;SDS011;9652;49.014;12.052;2022-11-23T07:25:42;8.30;;;7.00;;
19038;SDS011;9652;49.014;12.052;2022-11-23T07:28:10;8.80;;;6.93;;
19038;SDS011;9652;49.014;12.052;2022-11-23T07:30:38;8.30;;;6.83;;
19038;SDS011;9652;49.014;12.052;2022-11-23T07:33:08;9.27;;;7.00;;
19038;SDS011;9652;49.014;12.052;2022-11-23T07:35:39;9.80;;;7.00;;
19038;SDS011;9652;49.014;12.052;2022-11-23T07:38:07;9.30;;;7.00;;
19038;SDS011;9652;49.014;12.052;2022-11-23T07:40:35;10.03;;;7.67;;
19038;SDS011;9652;49.014;12.052;2022-11-23T07:43:11;9.83;;;7.40;;
19038;SDS011;9652;49.014;12.052;2022-11-23T07:45:38;9.43;;;7.37;;
19038;SDS011;9652;49.014;12.052;2022-11-23T07:48:07;9.50;;;7.10;;
19038;SDS011;9652;49.014;12.052;2022-11-23T07:50:37;10.07;;;6.87;;
19038;SDS011;9652;49.014;12.052;2022-11-23T07:53:05;11.10;;;7.93;;
19038;SDS011;9652;49.014;12.052;2022-11-23T07:55:33;11.77;;;7.53;;
19038;SDS011;9652;49.014;12.052;2022-11-23T07:58:01;8.20;;;7.30;;
19038;SDS011;9652;49.014;12.052;2022-11-23T08:00:29;11.33;;;8.30;;
19038;SDS011;9652;49.014;12.052;2022-11-23T08:02:57;12.27;;;8.30;;
19038;SDS011;9652;49.014;12.052;2022-11-23T08:05:24;12.47;;;7.93;;
19038;SDS011;9652;49.014;12.052;2022-11-23T08:07:57;10.47;;;7.27;;
19038;SDS011;9652;49.014;12.052;2022-11-23T08:10:25;10.00;;;7.33;;
19038;SDS011;9652;49.014;12.052;2022-11-23T08:12:55;9.73;;;7.37;;
19038;SDS011;9652;49.014;12.052;2022-11-23T08:15:23;10.17;;;8.30;;
19038;SDS011;9652;49.014;12.052;2022-11-23T08:17:53;9.97;;;6.73;;
19038;SDS011;9652;49.014;12.052;2022-11-23T08:20:21;10.77;;;8.37;;
19038;SDS011;9652;49.014;12.052;2022-11-23T08:22:48;10.67;;;7.47;;
19038;SDS011;9652;49.014;12.052;2022-11-23T08:25:17;10.13;;;7.23;;
19038;SDS011;9652;49.014;12.052;2022-11-23T08:27:44;10.80;;;7.50;;
19038;SDS011;9652;49.014;12.052;2022-11-23T08:30:11;11.87;;;7.57;;
19038;SDS011;9652;49.014;12.052;2022-11-23T08:32:40;10.77;;;7.90;;
19038;SDS011;9652;49.014;12.052;2022-11-23T08:35:07;11.77;;;8.23;;
19038;SDS011;9652;49.014;12.052;2022-11-23T08:37:34;11.23;;;7.53;;
19038;SDS011;9652;49.014;12.052;2022-11-23T08:40:02;10.43;;;7.47;;
19038;SDS011;9652;49.014;12.052;2022-11-23T08:42:31;10.73;;;8.17;;
19038;SDS011;9652;49.014;12.052;2022-11-23T08:44:58;9.00;;;7.23;;
19038;SDS011;9652;49.014;12.052;2022-11-23T08:47:27;12.43;;;7.93;;
19038;SDS011;9652;49.014;12.052;2022-11-23T08:49:56;11.20;;;8.10;;
19038;SDS011;9652;49.014;12.052;2022-11-23T08:52:23;9.87;;;7.80;;
19038;SDS011;9652;49.014;12.052;2022-11-23T08:54:51;10.70;;;7.27;;
19038;SDS011;9652;49.014;12.052;2022-11-23T08:57:18;9.90;;;7.67;;
19038;SDS011;9652;49.014;12.052;2022-11-23T08:59:46;10.40;;;7.50;;
19038;SDS011;9652;49.014;12.052;2022-11-23T09:02:14;11.67;;;8.70;;
19038;SDS011;9652;49.014;12.052;2022-11-23T09:04:41;10.60;;;7.93;;
19038;SDS011;9652;49.014;12.052;2022-11-23T09:07:08;11.30;;;8.17;;
19038;SDS011;9652;49.014;12.052;2022-11-23T09:09:35;11.53;;;8.63;;
19038;SDS011;9652;49.014;12.052;2022-11-23T09:12:02;12.23;;;8.40;;
19038;SDS011;9652;49.014;12.052;2022-11-23T09:14:32;11.07;;;7.93;;
19038;SDS011;9652;49.014;12.052;2022-11-23T09:17:00;9.70;;;7.40;;
19038;SDS011;9652;49.014;12.052;2022-11-23T09:19:28;9.73;;;7.93;;
19038;SDS011;9652;49.014;12.052;2022-11-23T09:21:56;11.07;;;7.97;;
19038;SDS011;9652;49.014;12.052;2022-11-23T09:24:23;11.53;;;8.00;;
19038;SDS011;9652;49.014;12.052;2022-11-23T09:26:52;11.63;;;7.43;;
19038;SDS011;9652;49.014;12.052;2022-11-23T09:29:19;9.00;;;6.67;;
19038;SDS011;9652;49.014;12.052;2022-11-23T09:31:46;10.30;;;7.70;;
19038;SDS011;9652;49.014;12.052;2022-11-23T09:34:15;10.73;;;7.53;;
19038;SDS011;9652;49.014;12.052;2022-11-23T09:36:42;10.13;;;7.93;;
19038;SDS011;9652;49.014;12.052;2022-11-23T09:39:09;9.43;;;7.43;;
19038;SDS011;9652;49.014;12.052;2022-11-23T09:44:42;10.70;;;7.77;;
19038;SDS011;9652;49.014;12.052;2022-11-23T09:47:44;10.70;;;7.63;;
19038;SDS011;9652;49.014;12.052;2022-11-23T09:50:39;11.03;;;7.37;;
19038;SDS011;9652;49.014;12.052;2022-11-23T09:53:13;11.57;;;8.30;;
19038;SDS011;9652;49.014;12.052;2022-11-23T09:55:46;9.73;;;7.80;;
19038;SDS011;9652;49.014;12.052;2022-11-23T09:58:18;10.07;;;7.77;;
19038;SDS011;9652;49.014;12.052;2022-11-23T10:00:49;9.90;;;7.87;;
19038;SDS011;9652;49.014;12.052;2022-11-23T10:03:26;10.77;;;7.37;;
19038;SDS011;9652;49.014;12.052;2022-11-23T10:05:58;13.17;;;8.20;;
19038;SDS011;9652;49.014;12.052;2022-11-23T10:08:35;11.00;;;7.27;;
19038;SDS011;9652;49.014;12.052;2022-11-23T10:11:23;9.00;;;7.07;;
19038;SDS011;9652;49.014;12.052;2022-11-23T10:14:17;9.70;;;7.03;;
19038;SDS011;9652;49.014;12.052;2022-11-23T10:16:58;11.07;;;8.20;;
19038;SDS011;9652;49.014;12.052;2022-11-23T10:19:37;9.00;;;8.07;;
19038;SDS011;9652;49.014;12.052;2022-11-23T10:22:28;9.57;;;7.10;;
19038;SDS011;9652;49.014;12.052;2022-11-23T10:25:03;9.10;;;7.33;;
19038;SDS011;9652;49.014;12.052;2022-11-23T10:27:40;12.07;;;7.13;;
19038;SDS011;9652;49.014;12.052;2022-11-23T10:30:10;9.07;;;7.23;;
19038;SDS011;9652;49.014;12.052;2022-11-23T10:32:40;10.53;;;7.70;;
19038;SDS011;9652;49.014;12.052;2022-11-23T10:35:14;11.23;;;8.10;;
19038;SDS011;9652;49.014;12.052;2022-11-23T10:37:48;11.90;;;8.30;;
19038;SDS011;9652;49.014;12.052;2022-11-23T10:40:16;11.13;;;8.80;;
19038;SDS011;9652;49.014;12.052;2022-11-23T10:42:51;12.57;;;7.93;;
19038;SDS011;9652;49.014;12.052;2022-11-23T10:45:24;11.53;;;8.90;;
19038;SDS011;9652;49.014;12.052;2022-11-23T10:47:54;10.37;;;8.23;;
19038;SDS011;9652;49.014;12.052;2022-11-23T10:50:25;10.80;;;8.33;;
19038;SDS011;9652;49.014;12.052;2022-11-23T10:52:58;11.47;;;9.33;;
19038;SDS011;9652;49.014;12.052;2022-11-23T10:55:45;12.40;;;9.17;;
19038;SDS011;9652;49.014;12.052;2022-11-23T10:58:22;12.23;;;9.07;;
19038;SDS011;9652;49.014;12.052;2022-11-23T11:00:59;14.57;;;8.23;;
19038;SDS011;9652;49.014;12.052;2022-11-23T11:03:29;9.73;;;8.40;;
19038;SDS011;9652;49.014;12.052;2022-11-23T11:05:58;10.43;;;8.83;;
19038;SDS011;9652;49.014;12.052;2022-11-23T11:08:28;12.80;;;8.73;;
19038;SDS011;9652;49.014;12.052;2022-11-23T11:10:58;9.77;;;8.23;;
19038;SDS011;9652;49.014;12.052;2022-11-23T11:13:30;13.93;;;9.47;;
19038;SDS011;9652;49.014;12.052;2022-11-23T11:16:14;10.37;;;9.27;;
19038;SDS011;9652;49.014;12.052;2022-11-23T11:18:47;12.07;;;9.17;;
19038;SDS011;9652;49.014;12.052;2022-11-23T11:21:17;12.53;;;9.17;;
19038;SDS011;9652;49.014;12.052;2022-11-23T11:23:51;17.20;;;10.53;;
19038;SDS011;9652;49.014;12.052;2022-11-23T11:26:21;11.37;;;9.00;;
19038;SDS011;9652;49.014;12.052;2022-11-23T11:28:51;11.43;;;8.80;;
19038;SDS011;9652;49.014;12.052;2022-11-23T11:31:29;17.17;;;10.17;;
19038;SDS011;9652;49.014;12.052;2022-11-23T11:34:21;11.43;;;9.03;;
19038;SDS011;9652;49.014;12.052;2022-11-23T11:36:55;10.60;;;9.17;;
19038;SDS011;9652;49.014;12.052;2022-11-23T11:39:36;12.63;;;9.47;;
19038;SDS011;9652;49.014;12.052;2022-11-23T11:42:12;11.87;;;8.73;;
19038;SDS011;9652;49.014;12.052;2022-11-23T11:44:45;11.20;;;8.90;;
19038;SDS011;9652;49.014;12.052;2022-11-23T11:47:22;11.50;;;9.20;;
19038;SDS011;9652;49.014;12.052;2022-11-23T11:49:57;12.30;;;9.50;;
19038;SDS011;9652;49.014;12.052;2022-11-23T11:52:29;13.43;;;8.70;;
19038;SDS011;9652;49.014;12.052;2022-11-23T11:55:06;13.60;;;9.13;;
19038;SDS011;9652;49.014;12.052;2022-11-23T11:57:43;10.87;;;9.03;;
19038;SDS011;9652;49.014;12.052;2022-11-23T12:00:16;15.93;;;10.20;;
19038;SDS011;9652;49.014;12.052;2022-11-23T12:02:48;12.50;;;9.77;;
19038;SDS011;9652;49.014;12.052;2022-11-23T12:05:34;12.13;;;9.27;;
19038;SDS011;9652;49.014;12.052;2022-11-23T12:08:10;11.43;;;9.20;;
19038;SDS011;9652;49.014;12.052;2022-11-23T12:10:45;14.17;;;9.70;;
19038;SDS011;9652;49.014;12.052;2022-11-23T12:13:20;10.43;;;8.60;;
19038;SDS011;9652;49.014;12.052;2022-11-23T12:15:52;13.43;;;10.40;;
19038;SDS011;9652;49.014;12.052;2022-11-23T12:18:36;13.23;;;9.73;;
19038;SDS011;9652;49.014;12.052;2022-11-23T12:21:32;12.27;;;8.83;;
19038;SDS011;9652;49.014;12.052;2022-11-23T12:24:41;11.60;;;8.63;;
19038;SDS011;9652;49.014;12.052;2022-11-23T12:27:27;11.23;;;8.77;;
19038;SDS011;9652;49.014;12.052;2022-11-23T12:30:16;11.77;;;9.37;;
19038;SDS011;9652;49.014;12.052;2022-11-23T12:32:54;12.80;;;9.27;;
19038;SDS011;9652;49.014;12.052;2022-11-23T12:35:47;11.57;;;8.77;;
19038;SDS011;9652;49.014;12.052;2022-11-23T12:38:30;11.57;;;9.43;;
19038;SDS011;9652;49.014;12.052;2022-11-23T12:41:21;12.90;;;9.23;;
19038;SDS011;9652;49.014;12.052;2022-11-23T12:44:12;12.80;;;9.57;;
19038;SDS011;9652;49.014;12.052;2022-11-23T12:47:08;11.13;;;8.53;;
19038;SDS011;9652;49.014;12.052;2022-11-23T12:49:49;9.67;;;7.93;;
19038;SDS011;9652;49.014;12.052;2022-11-23T12:52:30;10.00;;;8.90;;
19038;SDS011;9652;49.014;12.052;2022-11-23T12:55:14;10.03;;;7.77;;
19038;SDS011;9652;49.014;12.052;2022-11-23T12:57:52;9.53;;;7.77;;
19038;SDS011;9652;49.014;12.052;2022-11-23T13:00:35;10.90;;;7.90;;
19038;SDS011;9652;49.014;12.052;2022-11-23T13:10:03;7.77;;;6.10;;
19038;SDS011;9652;49.014;12.052;2022-11-23T13:19:52;9.23;;;7.70;;
19038;SDS011;9652;49.014;12.052;2022-11-23T13:22:54;9.47;;;7.50;;
19038;SDS011;9652;49.014;12.052;2022-11-23T13:25:30;10.03;;;8.00;;
19038;SDS011;9652;49.014;12.052;2022-11-23T13:34:00;11.60;;;6.40;;
19038;SDS011;9652;49.014;12.052;2022-11-23T13:37:21;8.73;;;6.57;;
19038;SDS011;9652;49.014;12.052;2022-11-23T13:40:07;9.07;;;6.57;;
19038;SDS011;9652;49.014;12.052;2022-11-23T13:42:52;8.13;;;6.23;;
19038;SDS011;9652;49.014;12.052;2022-11-23T13:45:37;8.93;;;6.93;;
19038;SDS011;9652;49.014;12.052;2022-11-23T13:48:17;7.90;;;6.43;;
19038;SDS011;9652;49.014;12.052;2022-11-23T13:50:58;8.97;;;6.80;;
19038;SDS011;9652;49.014;12.052;2022-11-23T13:53:33;9.20;;;7.40;;
19038;SDS011;9652;49.014;12.052;2022-11-23T13:56:30;9.93;;;6.97;;
19038;SDS011;9652;49.014;12.052;2022-11-23T14:08:22;9.50;;;6.70;;
19038;SDS011;9652;49.014;12.052;2022-11-23T14:10:50;10.30;;;8.00;;
19038;SDS011;9652;49.014;12.052;2022-11-23T14:13:19;9.27;;;6.57;;
19038;SDS011;9652;49.014;12.052;2022-11-23T14:15:54;9.23;;;7.13;;
19038;SDS011;9652;49.014;12.052;2022-11-23T14:18:33;10.63;;;7.27;;
19038;SDS011;9652;49.014;12.052;2022-11-23T14:21:20;10.67;;;8.40;;
19038;SDS011;9652;49.014;12.052;2022-11-23T14:27:04;8.53;;;7.40;;
19038;SDS011;9652;49.014;12.052;2022-11-23T14:29:57;8.53;;;7.40;;
19038;SDS011;9652;49.014;12.052;2022-11-23T14:32:44;11.60;;;7.47;;
19038;SDS011;9652;49.014;12.052;2022-11-23T14:35:39;9.80;;;7.93;;
19038;SDS011;9652;49.014;12.052;2022-11-23T14:41:20;8.07;;;7.23;;
19038;SDS011;9652;49.014;12.052;2022-11-23T14:43:51;10.70;;;7.83;;
19038;SDS011;9652;49.014;12.052;2022-11-23T14:46:21;9.53;;;8.10;;
19038;SDS011;9652;49.014;12.052;2022-11-23T14:48:50;11.13;;;8.27;;
19038;SDS011;9652;49.014;12.052;2022-11-23T14:51:18;10.80;;;8.43;;
19038;SDS011;9652;49.014;12.052;2022-11-23T14:53:51;10.60;;;8.33;;
19038;SDS011;9652;49.014;12.052;2022-11-23T14:56:27;13.37;;;8.73;;
19038;SDS011;9652;49.014;12.052;2022-11-23T14:59:01;9.73;;;8.23;;
19038;SDS011;9652;49.014;12.052;2022-11-23T15:01:33;8.77;;;7.67;;
19038;SDS011;9652;49.014;12.052;2022-11-23T15:04:06;10.67;;;8.10;;
19038;SDS011;9652;49.014;12.052;2022-11-23T15:06:38;10.50;;;8.53;;
19038;SDS011;9652;49.014;12.052;2022-11-23T15:09:14;9.97;;;8.17;;
19038;SDS011;9652;49.014;12.052;2022-11-23T15:12:05;12.00;;;9.20;;
19038;SDS011;9652;49.014;12.052;2022-11-23T15:14:33;10.30;;;8.03;;
19038;SDS011;9652;49.014;12.052;2022-11-23T15:17:13;10.80;;;8.17;;
19038;SDS011;9652;49.014;12.052;2022-11-23T15:19:51;8.70;;;7.43;;
19038;SDS011;9652;49.014;12.052;2022-11-23T15:22:20;9.73;;;8.53;;
19038;SDS011;9652;49.014;12.052;2022-11-23T15:24:48;10.97;;;8.20;;
19038;SDS011;9652;49.014;12.052;2022-11-23T15:27:18;12.73;;;8.30;;
19038;SDS011;9652;49.014;12.052;2022-11-23T15:29:53;10.40;;;7.93;;
19038;SDS011;9652;49.014;12.052;2022-11-23T15:32:23;11.33;;;7.73;;
19038;SDS011;9652;49.014;12.052;2022-11-23T15:34:53;9.77;;;7.40;;
19038;SDS011;9652;49.014;12.052;2022-11-23T15:37:24;10.53;;;8.13;;
19038;SDS011;9652;49.014;12.052;2022-11-23T15:39:53;10.40;;;8.07;;
19038;SDS011;9652;49.014;12.052;2022-11-23T15:42:24;10.53;;;8.00;;
19038;SDS011;9652;49.014;12.052;2022-11-23T15:44:52;11.67;;;8.17;;
19038;SDS011;9652;49.014;12.052;2022-11-23T15:47:20;11.57;;;9.13;;
19038;SDS011;9652;49.014;12.052;2022-11-23T15:49:51;12.13;;;9.27;;
19038;SDS011;9652;49.014;12.052;2022-11-23T15:52:26;11.30;;;9.10;;